createdAt,value
2023-09-14T00:02:08.972Z,3.15
2023-09-14T00:05:13.834Z,3.40
2023-09-14T00:08:16.635Z,3.60
2023-09-14T00:11:20.831Z,3.40
2023-09-14T00:14:23.880Z,3.10
2023-09-14T00:17:26.781Z,3.33
2023-09-14T00:20:32.623Z,3.47
2023-09-14T00:23:35.515Z,3.95
2023-09-14T00:26:38.269Z,3.05
2023-09-14T00:29:41.124Z,4.03
2023-09-14T00:32:44.123Z,3.35
2023-09-14T00:35:49.005Z,3.47
2023-09-14T00:38:51.863Z,3.28
2023-09-14T00:41:54.876Z,3.13
2023-09-14T00:44:57.805Z,3.75
2023-09-14T00:48:03.454Z,3.58
2023-09-14T00:51:09.008Z,3.65
2023-09-14T00:54:12.855Z,3.40
2023-09-14T00:57:16.962Z,4.00
2023-09-14T01:00:20.202Z,4.68
2023-09-14T01:03:25.153Z,4.43
2023-09-14T01:06:29.761Z,3.88
2023-09-14T01:09:33.119Z,4.15
2023-09-14T01:12:36.241Z,4.10
2023-09-14T01:15:43.003Z,3.40
2023-09-14T01:18:53.482Z,3.30
2023-09-14T01:22:17.906Z,3.83
2023-09-14T01:25:26.156Z,4.13
2023-09-14T01:28:30.734Z,4.38
2023-09-14T01:31:33.824Z,3.70
2023-09-14T01:34:36.903Z,3.97
2023-09-14T01:37:40.381Z,4.68
2023-09-14T01:40:46.428Z,4.13
2023-09-14T01:43:53.553Z,4.43
2023-09-14T01:46:56.937Z,3.92
2023-09-14T01:49:59.891Z,4.70
2023-09-14T01:53:02.868Z,4.45
2023-09-14T01:56:06.077Z,3.78
2023-09-14T01:59:10.425Z,3.97
2023-09-14T02:02:13.515Z,3.45
2023-09-14T02:05:16.565Z,3.42
2023-09-14T02:08:19.353Z,3.83
2023-09-14T02:11:22.246Z,3.92
2023-09-14T02:14:26.481Z,4.32
2023-09-14T02:17:30.922Z,3.50
2023-09-14T02:20:36.097Z,3.50
2023-09-14T02:23:38.905Z,3.47
2023-09-14T02:26:41.688Z,3.47
2023-09-14T02:29:45.964Z,3.63
2023-09-14T02:32:48.874Z,3.47
2023-09-14T02:35:52.522Z,3.28
2023-09-14T02:38:55.518Z,3.63
2023-09-14T02:41:58.290Z,3.30
2023-09-14T02:45:02.437Z,3.13
2023-09-14T02:48:05.681Z,3.17
2023-09-14T02:51:08.602Z,2.78
2023-09-14T02:54:11.350Z,2.97
2023-09-14T02:57:14.282Z,3.38
2023-09-14T03:00:19.325Z,3.33
2023-09-14T03:03:22.240Z,2.97
2023-09-14T03:06:25.416Z,2.88
2023-09-14T03:09:28.147Z,2.33
2023-09-14T03:12:31.081Z,2.80
2023-09-14T03:15:36.282Z,3.00
2023-09-14T03:18:39.284Z,2.92
2023-09-14T03:21:42.254Z,2.90
2023-09-14T03:24:45.102Z,2.67
2023-09-14T03:27:50.164Z,2.70
2023-09-14T03:30:54.537Z,2.78
2023-09-14T03:33:57.446Z,2.75
2023-09-14T03:37:00.280Z,3.05
2023-09-14T03:40:03.087Z,2.33
2023-09-14T03:43:06.312Z,2.72
2023-09-14T03:46:11.314Z,2.75
2023-09-14T03:49:14.323Z,3.35
2023-09-14T03:52:17.107Z,3.33
2023-09-14T03:55:20.288Z,4.05
2023-09-14T03:58:24.212Z,3.88
2023-09-14T04:01:28.455Z,4.35
2023-09-14T04:04:31.412Z,4.07
2023-09-14T04:07:34.301Z,4.45
2023-09-14T04:10:38.910Z,4.07
2023-09-14T04:13:41.829Z,3.55
2023-09-14T04:16:46.294Z,4.10
2023-09-14T04:19:49.157Z,4.65
2023-09-14T04:22:52.406Z,4.32
2023-09-14T04:25:55.986Z,5.10
2023-09-14T04:28:58.948Z,4.70
2023-09-14T04:32:04.664Z,4.88
2023-09-14T04:35:09.229Z,4.32
2023-09-14T04:38:12.682Z,4.28
2023-09-14T04:41:15.686Z,4.43
2023-09-14T04:44:18.668Z,4.28
2023-09-14T04:47:22.761Z,5.22
2023-09-14T04:50:25.646Z,4.78
2023-09-14T04:53:29.392Z,5.28
2023-09-14T04:56:32.415Z,5.05
2023-09-14T04:59:35.103Z,5.82
2023-09-14T05:02:40.160Z,5.50
2023-09-14T05:05:43.240Z,5.07
2023-09-14T05:08:46.299Z,5.90
2023-09-14T05:11:49.256Z,5.80
2023-09-14T05:14:52.046Z,5.68
2023-09-14T05:17:56.877Z,6.05
2023-09-14T05:20:59.801Z,6.03
2023-09-14T05:24:02.772Z,5.55
2023-09-14T05:27:06.324Z,5.07
2023-09-14T05:30:11.199Z,5.95
2023-09-14T05:33:15.999Z,5.85
2023-09-14T05:36:18.812Z,6.35
2023-09-14T05:39:21.898Z,6.18
2023-09-14T05:42:24.916Z,7.10
2023-09-14T05:45:28.336Z,5.75
2023-09-14T05:48:32.699Z,6.15
2023-09-14T05:51:35.603Z,5.70
2023-09-14T05:54:38.540Z,4.95
2023-09-14T05:57:41.543Z,4.88
2023-09-14T06:00:44.759Z,5.50
2023-09-14T06:03:49.559Z,5.05
2023-09-14T06:06:52.518Z,4.78
2023-09-14T06:09:55.487Z,5.35
2023-09-14T06:12:58.449Z,5.00
2023-09-14T06:16:01.497Z,4.95
2023-09-14T06:19:05.969Z,5.13
2023-09-14T06:22:10.049Z,4.93
2023-09-14T06:25:12.877Z,4.28
2023-09-14T06:28:15.854Z,3.50
2023-09-14T06:31:18.694Z,3.30
2023-09-14T06:34:22.854Z,2.90
2023-09-14T06:37:25.666Z,3.05
2023-09-14T06:40:28.644Z,2.97
2023-09-14T06:43:31.591Z,2.67
2023-09-14T06:46:34.526Z,2.47
2023-09-14T06:49:38.692Z,2.22
2023-09-14T06:52:41.586Z,2.30
2023-09-14T06:55:44.611Z,2.47
2023-09-14T06:58:47.413Z,2.40
2023-09-14T07:01:51.227Z,2.67
2023-09-14T07:04:56.157Z,2.60
2023-09-14T07:07:58.939Z,2.38
2023-09-14T07:11:01.931Z,2.83
2023-09-14T07:14:05.112Z,2.38
2023-09-14T07:17:08.432Z,2.35
2023-09-14T07:20:13.470Z,2.08
2023-09-14T07:23:16.491Z,2.15
2023-09-14T07:26:19.273Z,2.13
2023-09-14T07:29:22.852Z,2.50
2023-09-14T07:32:25.668Z,2.20
2023-09-14T07:35:29.806Z,2.53
2023-09-14T07:38:32.711Z,2.30
2023-09-14T07:41:35.753Z,2.47
2023-09-14T07:44:38.606Z,2.20
2023-09-14T07:47:41.729Z,2.70
2023-09-14T07:50:46.118Z,2.35
2023-09-14T07:53:48.954Z,2.83
2023-09-14T07:56:51.708Z,2.53
2023-09-14T07:59:54.552Z,2.22
2023-09-14T08:02:57.365Z,2.97
2023-09-14T08:06:03.117Z,2.50
2023-09-14T08:09:06.035Z,2.53
2023-09-14T08:12:09.288Z,2.28
2023-09-14T08:15:13.438Z,2.17
2023-09-14T08:18:16.480Z,2.45
2023-09-14T08:21:21.029Z,2.63
2023-09-14T08:24:24.011Z,2.60
2023-09-14T08:27:27.792Z,3.22
2023-09-14T08:30:30.635Z,3.08
2023-09-14T08:33:33.942Z,3.10
2023-09-14T08:36:40.545Z,3.67
2023-09-14T08:39:43.380Z,4.10
2023-09-14T08:42:49.740Z,3.50
2023-09-14T08:45:54.915Z,2.92
2023-09-14T08:49:00.901Z,3.88
2023-09-14T08:52:09.468Z,2.90
2023-09-14T08:55:13.854Z,3.33
2023-09-14T08:58:18.413Z,2.88
2023-09-14T09:01:21.367Z,3.13
2023-09-14T09:04:27.559Z,2.95
2023-09-14T09:07:32.528Z,3.65
2023-09-14T09:10:35.872Z,3.63
2023-09-14T09:13:44.387Z,3.65
2023-09-14T09:16:47.417Z,3.95
2023-09-14T09:19:54.031Z,3.17
2023-09-14T09:23:00.962Z,3.67
2023-09-14T09:26:04.735Z,3.20
2023-09-14T09:29:17.763Z,3.55
2023-09-14T09:32:23.856Z,4.05
2023-09-14T09:35:28.230Z,2.58
2023-09-14T09:38:41.377Z,3.10
2023-09-14T09:41:47.487Z,3.50
2023-09-14T09:44:50.562Z,3.08
2023-09-14T09:47:54.609Z,3.55
2023-09-14T09:50:57.961Z,3.50
2023-09-14T09:54:06.032Z,3.65
2023-09-14T09:57:09.325Z,3.20
2023-09-14T10:00:14.504Z,3.05
2023-09-14T10:03:26.362Z,2.60
2023-09-14T10:06:29.260Z,2.78
2023-09-14T10:09:36.242Z,3.22
2023-09-14T10:12:40.989Z,2.65
2023-09-14T10:15:44.455Z,2.70
2023-09-14T10:18:49.173Z,3.28
2023-09-14T10:21:54.824Z,3.00
2023-09-14T10:25:00.965Z,3.13
2023-09-14T10:28:06.348Z,2.90
2023-09-14T10:31:11.942Z,2.20
2023-09-14T10:34:19.404Z,2.90
2023-09-14T10:37:22.594Z,2.78
2023-09-14T10:40:29.868Z,3.50
2023-09-14T10:43:33.428Z,2.95
2023-09-14T10:46:42.830Z,2.88
2023-09-14T10:49:47.137Z,2.60
2023-09-14T10:52:50.159Z,2.55
2023-09-14T10:55:54.671Z,2.35
2023-09-14T10:58:57.528Z,2.40
2023-09-14T11:02:15.447Z,2.63
2023-09-14T11:05:25.694Z,2.30
2023-09-14T11:08:31.854Z,2.40
2023-09-14T11:11:41.685Z,2.60
2023-09-14T11:15:15.509Z,2.50
2023-09-14T11:18:19.194Z,2.15
2023-09-14T11:21:52.279Z,2.22
2023-09-14T11:24:56.466Z,1.75
2023-09-14T11:28:01.194Z,2.38
2023-09-14T11:31:04.768Z,2.03
2023-09-14T11:34:15.203Z,2.53
2023-09-14T11:37:20.555Z,2.63
2023-09-14T11:40:35.718Z,2.30
2023-09-14T11:44:36.551Z,2.38
2023-09-14T11:47:35.003Z,1.95
2023-09-14T11:50:45.836Z,1.63
2023-09-14T11:53:49.786Z,2.35
2023-09-14T11:56:56.838Z,1.98
2023-09-14T12:00:01.654Z,2.00
2023-09-14T12:03:05.155Z,2.20
2023-09-14T12:06:09.202Z,1.95
2023-09-14T12:09:25.396Z,2.08
2023-09-14T12:12:35.870Z,1.60
2023-09-14T12:15:41.023Z,1.65
2023-09-14T12:18:44.446Z,2.00
2023-09-14T12:21:47.513Z,1.85
2023-09-14T12:24:51.598Z,2.08
2023-09-14T12:27:54.658Z,2.30
2023-09-14T12:30:59.145Z,1.88
2023-09-14T12:34:02.123Z,1.67
2023-09-14T12:37:05.631Z,1.70
2023-09-14T12:40:11.667Z,2.30
2023-09-14T12:43:18.966Z,2.05
2023-09-14T12:46:25.550Z,1.70
2023-09-14T12:49:28.891Z,1.88
2023-09-14T12:52:33.274Z,2.17
2023-09-14T12:55:40.141Z,1.63
2023-09-14T12:58:43.299Z,1.63
2023-09-14T13:01:47.536Z,1.63
2023-09-14T13:04:50.465Z,1.80
2023-09-14T13:07:55.912Z,1.67
2023-09-14T13:10:58.938Z,1.33
2023-09-14T13:14:01.893Z,1.73
2023-09-14T13:17:06.136Z,1.33
2023-09-14T13:20:11.676Z,1.60
2023-09-14T13:23:14.897Z,1.73
2023-09-14T13:26:17.742Z,1.55
2023-09-14T13:29:20.478Z,1.50
2023-09-14T13:32:25.169Z,1.48
2023-09-14T13:35:29.228Z,1.40
2023-09-14T13:38:32.219Z,1.42
2023-09-14T13:41:35.355Z,1.63
2023-09-14T13:44:38.199Z,1.42
2023-09-14T13:47:42.516Z,1.52
2023-09-14T13:50:45.540Z,1.60
2023-09-14T13:53:48.715Z,1.65
2023-09-14T13:56:51.734Z,1.45
2023-09-14T13:59:54.790Z,1.88
2023-09-14T14:03:09.994Z,1.88
2023-09-14T14:06:12.882Z,1.90
2023-09-14T14:09:18.536Z,1.83
2023-09-14T14:12:21.332Z,1.65
2023-09-14T14:15:25.245Z,1.88
2023-09-14T14:18:29.441Z,1.63
2023-09-14T14:21:32.189Z,1.70
2023-09-14T14:24:36.171Z,1.67
2023-09-14T14:27:42.210Z,2.13
2023-09-14T14:30:45.526Z,2.10
2023-09-14T14:33:49.821Z,1.98
2023-09-14T14:36:52.769Z,1.25
2023-09-14T14:39:55.883Z,1.80
2023-09-14T14:42:59.151Z,1.67
2023-09-14T14:46:02.502Z,1.50
2023-09-14T14:49:07.769Z,1.70
2023-09-14T14:52:10.688Z,1.50
2023-09-14T14:55:13.645Z,1.50
2023-09-14T14:58:16.543Z,1.40
2023-09-14T15:01:19.421Z,1.20
2023-09-14T15:04:23.544Z,1.35
2023-09-14T15:07:26.335Z,1.40
2023-09-14T15:10:29.197Z,1.88
2023-09-14T15:13:32.461Z,1.35
2023-09-14T15:16:35.408Z,1.30
2023-09-14T15:19:39.712Z,1.30
2023-09-14T15:22:42.968Z,1.70
2023-09-14T15:25:47.942Z,1.15
2023-09-14T15:28:51.168Z,1.30
2023-09-14T15:31:54.344Z,1.50
2023-09-14T15:34:58.730Z,1.40
2023-09-14T15:38:01.700Z,1.60
2023-09-14T15:41:04.875Z,1.40
2023-09-14T15:44:09.196Z,1.30
2023-09-14T15:47:12.115Z,1.13
2023-09-14T15:50:16.524Z,1.30
2023-09-14T15:53:19.821Z,1.50
2023-09-14T15:56:23.169Z,1.40
2023-09-14T15:59:26.020Z,1.23
2023-09-14T16:02:29.164Z,1.00
2023-09-14T16:05:33.644Z,1.52
2023-09-14T16:08:36.690Z,1.33
2023-09-14T16:11:39.634Z,1.48
2023-09-14T16:14:42.929Z,1.13
2023-09-14T16:17:45.910Z,1.30
2023-09-14T16:20:50.348Z,1.60
2023-09-14T16:23:53.164Z,1.50
2023-09-14T16:26:56.047Z,0.98
2023-09-14T16:29:58.999Z,1.20
2023-09-14T16:33:02.084Z,1.20
2023-09-14T16:36:07.022Z,1.45
2023-09-14T16:39:09.824Z,1.17
2023-09-14T16:42:12.814Z,1.13
2023-09-14T16:45:15.810Z,1.10
2023-09-14T16:48:18.791Z,1.35
2023-09-14T16:51:24.928Z,1.40
2023-09-14T16:54:30.068Z,1.33
2023-09-14T16:57:33.148Z,1.63
2023-09-14T17:00:38.624Z,1.20
2023-09-14T17:03:41.814Z,1.60
2023-09-14T17:06:46.509Z,1.20
2023-09-14T17:09:49.488Z,1.30
2023-09-14T17:12:54.467Z,1.35
2023-09-14T17:15:57.602Z,1.63
2023-09-14T17:19:00.597Z,1.38
2023-09-14T17:22:06.432Z,1.60
2023-09-14T17:25:10.180Z,1.70
2023-09-14T17:28:13.126Z,1.58
2023-09-14T17:31:16.706Z,1.73
2023-09-14T17:34:20.909Z,1.45
2023-09-14T17:37:26.268Z,1.50
2023-09-14T17:40:29.136Z,1.40
2023-09-14T17:43:32.378Z,1.40
2023-09-14T17:46:35.801Z,1.15
2023-09-14T17:49:38.735Z,1.50
2023-09-14T17:52:43.712Z,1.27
2023-09-14T17:55:46.617Z,1.30
2023-09-14T17:58:50.577Z,1.38
2023-09-14T18:01:53.384Z,1.42
2023-09-14T18:04:56.179Z,1.48
2023-09-14T18:08:00.983Z,1.50
2023-09-14T18:11:04.274Z,1.55
2023-09-14T18:14:07.709Z,1.45
2023-09-14T18:17:10.911Z,1.85
2023-09-14T18:20:16.878Z,1.52
2023-09-14T18:23:28.840Z,1.35
2023-09-14T18:26:32.804Z,1.50
2023-09-14T18:29:38.457Z,1.58
2023-09-14T18:32:52.527Z,1.52
2023-09-14T18:35:56.116Z,1.45
2023-09-14T18:39:00.304Z,1.67
2023-09-14T18:42:03.479Z,2.00
2023-09-14T18:45:07.686Z,1.35
2023-09-14T18:48:13.728Z,1.40
2023-09-14T18:51:17.821Z,1.60
2023-09-14T18:54:22.271Z,1.83
2023-09-14T18:57:25.281Z,1.52
2023-09-14T19:00:28.136Z,1.17
2023-09-14T19:03:31.257Z,1.30
2023-09-14T19:06:34.273Z,1.27
2023-09-14T19:09:38.592Z,1.23
2023-09-14T19:12:43.542Z,1.42
2023-09-14T19:15:46.744Z,1.40
2023-09-14T19:18:50.127Z,1.40
2023-09-14T19:21:53.927Z,1.40
2023-09-14T19:24:58.702Z,1.30
2023-09-14T19:28:01.881Z,1.20
2023-09-14T19:31:05.344Z,1.80
2023-09-14T19:34:08.594Z,1.50
2023-09-14T19:37:12.558Z,1.48
2023-09-14T19:40:16.986Z,1.63
2023-09-14T19:43:19.988Z,1.33
2023-09-14T19:46:23.026Z,1.50
2023-09-14T19:49:26.109Z,0.98
2023-09-14T19:52:29.662Z,1.20
2023-09-14T19:55:34.022Z,1.23
2023-09-14T19:58:37.891Z,1.48
2023-09-14T20:01:41.310Z,1.40
2023-09-14T20:04:44.095Z,1.13
2023-09-14T20:07:47.997Z,1.67
2023-09-14T20:10:52.603Z,1.35
2023-09-14T20:13:55.843Z,1.70
2023-09-14T20:16:59.033Z,1.27
2023-09-14T20:20:06.553Z,1.50
2023-09-14T20:23:10.908Z,1.58
2023-09-14T20:26:15.192Z,1.88
2023-09-14T20:29:17.908Z,1.10
2023-09-14T20:32:20.785Z,1.67
2023-09-14T20:35:23.900Z,1.50
2023-09-14T20:38:27.068Z,1.40
2023-09-14T20:41:33.526Z,1.40
2023-09-14T20:44:36.490Z,1.48
2023-09-14T20:47:40.512Z,1.60
2023-09-14T20:50:43.866Z,1.25
2023-09-14T20:53:47.101Z,1.40
2023-09-14T20:56:51.324Z,1.35
2023-09-14T20:59:54.711Z,1.95
2023-09-14T21:02:57.724Z,1.77
2023-09-14T21:06:01.571Z,1.67
2023-09-14T21:09:04.320Z,1.55
2023-09-14T21:12:09.586Z,1.52
2023-09-14T21:15:12.574Z,1.70
2023-09-14T21:18:15.328Z,1.65
2023-09-14T21:21:19.368Z,1.63
2023-09-14T21:24:22.257Z,1.60
2023-09-14T21:27:27.699Z,1.40
2023-09-14T21:30:30.680Z,1.88
2023-09-14T21:33:33.609Z,1.40
2023-09-14T21:36:36.530Z,1.70
2023-09-14T21:39:39.420Z,1.13
2023-09-14T21:42:43.670Z,1.60
2023-09-14T21:45:49.881Z,1.63
2023-09-14T21:48:52.879Z,1.45
2023-09-14T21:51:55.634Z,1.40
2023-09-14T21:54:58.689Z,1.38
2023-09-14T21:58:03.051Z,1.75
2023-09-14T22:01:05.912Z,2.13
2023-09-14T22:04:08.740Z,2.08
2023-09-14T22:07:11.758Z,1.23
2023-09-14T22:10:14.761Z,1.58
2023-09-14T22:13:19.757Z,1.67
2023-09-14T22:16:22.626Z,1.15
2023-09-14T22:19:26.827Z,1.40
2023-09-14T22:22:29.553Z,1.60
2023-09-14T22:25:34.196Z,1.50
2023-09-14T22:28:38.549Z,1.67
2023-09-14T22:31:41.434Z,1.40
2023-09-14T22:34:44.488Z,1.33
2023-09-14T22:37:51.246Z,1.90
2023-09-14T22:40:54.522Z,1.48
2023-09-14T22:43:58.692Z,1.67
2023-09-14T22:47:01.569Z,1.70
2023-09-14T22:50:05.245Z,1.80
2023-09-14T22:53:08.251Z,2.15
2023-09-14T22:56:16.063Z,1.80
2023-09-14T22:59:20.977Z,1.70
2023-09-14T23:02:23.909Z,1.58
2023-09-14T23:05:27.980Z,2.28
2023-09-14T23:08:30.835Z,2.10
2023-09-14T23:11:41.049Z,2.20
2023-09-14T23:14:45.340Z,2.60
2023-09-14T23:17:48.567Z,2.20
2023-09-14T23:20:52.669Z,2.10
2023-09-14T23:23:56.667Z,2.10
2023-09-14T23:27:00.128Z,1.88
2023-09-14T23:30:06.929Z,2.20
2023-09-14T23:33:09.614Z,1.98
2023-09-14T23:36:13.809Z,1.70
2023-09-14T23:39:18.995Z,1.80
2023-09-14T23:42:21.770Z,1.70
2023-09-14T23:45:26.699Z,1.92
2023-09-14T23:48:29.665Z,1.70
2023-09-14T23:51:32.694Z,1.92
2023-09-14T23:54:35.554Z,1.73
2023-09-14T23:57:38.688Z,1.40
